createdAt,value
2023-01-29T00:00:14.923Z,0
2023-01-29T00:01:16.493Z,0
2023-01-29T00:02:16.727Z,0
2023-01-29T00:03:17.169Z,0
2023-01-29T00:04:17.500Z,0
2023-01-29T00:05:27.287Z,0
2023-01-29T00:06:28.934Z,0
2023-01-29T00:07:29.103Z,0
2023-01-29T00:08:29.264Z,0
2023-01-29T00:09:29.446Z,0
2023-01-29T00:10:29.672Z,0
2023-01-29T00:11:29.846Z,0
2023-01-29T00:12:30.016Z,0
2023-01-29T00:13:30.188Z,0
2023-01-29T00:14:30.354Z,0
2023-01-29T00:15:30.528Z,0
2023-01-29T00:16:30.696Z,0
2023-01-29T00:17:30.873Z,0
2023-01-29T00:18:31.048Z,0
2023-01-29T00:19:31.270Z,0
2023-01-29T00:20:31.464Z,0
2023-01-29T00:21:31.656Z,0
2023-01-29T00:22:31.860Z,0
2023-01-29T00:23:32.041Z,0
2023-01-29T00:24:32.262Z,0
2023-01-29T00:25:32.559Z,0
2023-01-29T00:26:32.733Z,0
2023-01-29T00:27:32.926Z,0
2023-01-29T00:28:33.100Z,0
2023-01-29T00:29:33.297Z,0
2023-01-29T00:30:33.461Z,0
2023-01-29T00:31:33.715Z,0
2023-01-29T00:32:34.161Z,0
2023-01-29T00:33:34.347Z,0
2023-01-29T00:34:34.515Z,0
2023-01-29T00:35:34.732Z,0
2023-01-29T00:36:34.929Z,0
2023-01-29T00:37:35.149Z,0
2023-01-29T00:38:35.315Z,0
2023-01-29T00:39:47.000Z,0
2023-01-29T00:40:48.622Z,0
2023-01-29T00:41:48.808Z,0
2023-01-29T00:42:48.984Z,0
2023-01-29T00:43:49.159Z,0
2023-01-29T00:44:49.352Z,0
2023-01-29T00:45:49.522Z,0
2023-01-29T00:46:49.747Z,0
2023-01-29T00:47:50.038Z,0
2023-01-29T00:48:50.212Z,0
2023-01-29T00:49:50.371Z,0
2023-01-29T00:50:50.529Z,0
2023-01-29T00:51:50.693Z,0
2023-01-29T00:52:50.855Z,0
2023-01-29T00:53:51.029Z,0
2023-01-29T00:54:51.192Z,0
2023-01-29T00:55:51.393Z,0
2023-01-29T00:56:51.577Z,0
2023-01-29T00:57:51.744Z,0
2023-01-29T00:58:51.916Z,0
2023-01-29T00:59:52.100Z,0
2023-01-29T01:00:52.328Z,0
2023-01-29T01:01:52.598Z,0
2023-01-29T01:02:52.932Z,0
2023-01-29T01:03:53.113Z,0
2023-01-29T01:04:53.289Z,0
2023-01-29T01:05:53.453Z,0
2023-01-29T01:06:53.639Z,0
2023-01-29T01:07:54.034Z,0
2023-01-29T01:08:54.206Z,0
2023-01-29T01:09:54.393Z,0
2023-01-29T01:10:54.557Z,0
2023-01-29T01:11:54.728Z,0
2023-01-29T01:12:54.912Z,0
2023-01-29T01:13:55.133Z,0
2023-01-29T01:14:55.313Z,0
2023-01-29T01:15:55.584Z,0
2023-01-29T01:16:55.892Z,0
2023-01-29T01:17:56.053Z,0
2023-01-29T01:18:56.244Z,0
2023-01-29T01:19:56.409Z,0
2023-01-29T01:20:56.602Z,0
2023-01-29T01:21:56.789Z,0
2023-01-29T01:22:56.960Z,0
2023-01-29T01:23:57.155Z,0
2023-01-29T01:24:57.456Z,0
2023-01-29T01:25:57.644Z,0
2023-01-29T01:26:57.823Z,0
2023-01-29T01:27:58.008Z,0
2023-01-29T01:29:00.600Z,0
2023-01-29T01:30:00.767Z,0
2023-01-29T01:31:00.982Z,0
2023-01-29T01:32:01.374Z,0
2023-01-29T01:33:01.853Z,0
2023-01-29T01:34:02.042Z,0
2023-01-29T01:35:02.202Z,0
2023-01-29T01:36:02.371Z,0
2023-01-29T01:37:02.567Z,0
2023-01-29T01:38:02.741Z,0
2023-01-29T01:39:02.922Z,0
2023-01-29T01:40:03.114Z,0
2023-01-29T01:41:03.278Z,0
2023-01-29T01:42:03.439Z,0
2023-01-29T01:43:03.636Z,0
2023-01-29T01:44:03.804Z,0
2023-01-29T01:45:03.983Z,0
2023-01-29T01:46:04.217Z,0
2023-01-29T01:47:04.549Z,0
2023-01-29T01:48:04.714Z,0
2023-01-29T01:49:04.884Z,0
2023-01-29T01:50:05.078Z,0
2023-01-29T01:51:05.262Z,0
2023-01-29T01:52:05.455Z,0
2023-01-29T01:53:05.655Z,0
2023-01-29T01:54:05.844Z,0
2023-01-29T01:55:06.029Z,0
2023-01-29T01:56:06.213Z,0
2023-01-29T01:57:06.462Z,0
2023-01-29T01:58:06.628Z,0
2023-01-29T01:59:06.809Z,0
2023-01-29T02:00:06.995Z,0
2023-01-29T02:01:07.255Z,0
2023-01-29T02:02:07.694Z,0
2023-01-29T02:03:07.946Z,0
2023-01-29T02:04:08.121Z,0
2023-01-29T02:05:08.301Z,0
2023-01-29T02:06:08.471Z,0
2023-01-29T02:07:08.651Z,0
2023-01-29T02:08:08.847Z,0
2023-01-29T02:09:09.030Z,0
2023-01-29T02:10:09.192Z,0
2023-01-29T02:11:09.355Z,0
2023-01-29T02:12:09.539Z,0
2023-01-29T02:13:09.727Z,0
2023-01-29T02:14:09.920Z,0
2023-01-29T02:15:10.110Z,0
2023-01-29T02:16:10.275Z,0
2023-01-29T02:17:10.466Z,0
2023-01-29T02:18:10.808Z,0
2023-01-29T02:19:10.984Z,0
2023-01-29T02:20:11.161Z,0
2023-01-29T02:21:11.341Z,0
2023-01-29T02:22:11.496Z,0
2023-01-29T02:23:11.666Z,0
2023-01-29T02:24:11.930Z,0
2023-01-29T02:25:12.418Z,0
2023-01-29T02:26:12.630Z,0
2023-01-29T02:27:12.805Z,0
2023-01-29T02:28:12.985Z,0
2023-01-29T02:29:13.155Z,0
2023-01-29T02:30:13.501Z,0
2023-01-29T02:31:14.283Z,0
2023-01-29T02:32:14.721Z,0
2023-01-29T02:33:14.904Z,0
2023-01-29T02:34:15.174Z,0
2023-01-29T02:35:15.339Z,0
2023-01-29T02:36:15.519Z,0
2023-01-29T02:37:15.708Z,0
2023-01-29T02:38:15.908Z,0
2023-01-29T02:39:16.089Z,0
2023-01-29T02:40:16.522Z,0
2023-01-29T02:41:17.710Z,0
2023-01-29T02:42:17.873Z,0
2023-01-29T02:43:18.078Z,0
2023-01-29T02:44:18.254Z,0
2023-01-29T02:45:18.423Z,0
2023-01-29T02:46:18.641Z,0
2023-01-29T02:47:19.086Z,0
2023-01-29T02:48:19.267Z,0
2023-01-29T02:49:19.435Z,0
2023-01-29T02:50:19.694Z,0
2023-01-29T02:51:19.924Z,0
2023-01-29T02:52:20.110Z,0
2023-01-29T02:53:20.289Z,0
2023-01-29T02:54:20.468Z,0
2023-01-29T02:55:20.664Z,0
2023-01-29T02:56:20.859Z,0
2023-01-29T02:57:21.030Z,0
2023-01-29T02:58:21.202Z,0
2023-01-29T02:59:21.382Z,0
2023-01-29T03:00:21.551Z,0
2023-01-29T03:01:21.793Z,0
2023-01-29T03:02:22.206Z,0
2023-01-29T03:03:22.548Z,0
2023-01-29T03:04:22.732Z,0
2023-01-29T03:05:22.931Z,0
2023-01-29T03:06:23.136Z,0
2023-01-29T03:07:23.312Z,0
2023-01-29T03:08:23.487Z,0
2023-01-29T03:09:23.659Z,0
2023-01-29T03:10:23.825Z,0
2023-01-29T03:11:23.990Z,0
2023-01-29T03:12:24.194Z,0
2023-01-29T03:13:24.368Z,0
2023-01-29T03:14:24.552Z,0
2023-01-29T03:15:24.717Z,0
2023-01-29T03:16:24.965Z,0
2023-01-29T03:17:25.244Z,0
2023-01-29T03:18:25.418Z,0
2023-01-29T03:19:25.602Z,0
2023-01-29T03:20:25.782Z,0
2023-01-29T03:21:25.951Z,0
2023-01-29T03:22:26.121Z,0
2023-01-29T03:23:26.293Z,0
2023-01-29T03:24:26.536Z,0
2023-01-29T03:25:26.956Z,0
2023-01-29T03:26:27.132Z,0
2023-01-29T03:27:27.297Z,0
2023-01-29T03:28:27.494Z,0
2023-01-29T03:29:27.655Z,0
2023-01-29T03:30:27.824Z,0
2023-01-29T03:31:28.083Z,0
2023-01-29T03:32:28.660Z,0
2023-01-29T03:33:28.868Z,0
2023-01-29T03:34:29.037Z,0
2023-01-29T03:35:29.202Z,0
2023-01-29T03:36:29.363Z,0
2023-01-29T03:37:29.547Z,0
2023-01-29T03:38:29.803Z,0
2023-01-29T03:39:29.978Z,0
2023-01-29T03:40:30.200Z,0
2023-01-29T03:41:30.375Z,0
2023-01-29T03:42:30.547Z,0
2023-01-29T03:43:30.719Z,0
2023-01-29T03:44:30.886Z,0
2023-01-29T03:45:31.087Z,0
2023-01-29T03:46:31.382Z,0
2023-01-29T03:47:31.643Z,0
2023-01-29T03:48:31.812Z,0
2023-01-29T03:49:31.998Z,0
2023-01-29T03:50:32.171Z,0
2023-01-29T03:51:32.349Z,0
2023-01-29T03:52:32.531Z,0
2023-01-29T03:53:32.701Z,0
2023-01-29T03:54:32.876Z,0
2023-01-29T03:55:33.063Z,0
2023-01-29T03:56:33.250Z,0
2023-01-29T03:57:33.430Z,0
2023-01-29T03:58:33.628Z,0
2023-01-29T03:59:33.811Z,0
2023-01-29T04:00:33.973Z,0
2023-01-29T04:01:34.181Z,0
2023-01-29T04:02:34.493Z,0
2023-01-29T04:03:34.686Z,0
2023-01-29T04:04:34.869Z,0
2023-01-29T04:05:35.039Z,0
2023-01-29T04:06:35.227Z,0
2023-01-29T04:07:35.416Z,0
2023-01-29T04:08:35.578Z,0
2023-01-29T04:09:35.751Z,0
2023-01-29T04:10:35.918Z,0
2023-01-29T04:11:36.085Z,0
2023-01-29T04:12:36.266Z,0
2023-01-29T04:13:36.450Z,0
2023-01-29T04:14:36.624Z,0
2023-01-29T04:15:36.803Z,0
2023-01-29T04:16:37.046Z,0
2023-01-29T04:17:37.422Z,0
2023-01-29T04:18:37.594Z,0
2023-01-29T04:19:37.777Z,0
2023-01-29T04:20:37.955Z,0
2023-01-29T04:21:38.154Z,0
2023-01-29T04:22:38.373Z,0
2023-01-29T04:23:38.565Z,0
2023-01-29T04:24:38.755Z,0
2023-01-29T04:25:38.928Z,0
2023-01-29T04:26:39.089Z,0
2023-01-29T04:27:39.275Z,0
2023-01-29T04:28:39.472Z,0
2023-01-29T04:29:39.661Z,0
2023-01-29T04:30:39.878Z,0
2023-01-29T04:31:40.256Z,0
2023-01-29T04:32:40.938Z,0
2023-01-29T04:33:41.118Z,0
2023-01-29T04:34:41.294Z,0
2023-01-29T04:35:41.481Z,0
2023-01-29T04:36:41.663Z,0
2023-01-29T04:37:41.831Z,0
2023-01-29T04:38:41.996Z,0
2023-01-29T04:39:42.175Z,0
2023-01-29T04:40:42.352Z,0
2023-01-29T04:41:42.519Z,0
2023-01-29T04:42:42.686Z,0
2023-01-29T04:43:42.864Z,0
2023-01-29T04:44:43.159Z,0
2023-01-29T04:45:43.326Z,0
2023-01-29T04:46:43.492Z,0
2023-01-29T04:47:43.753Z,0
2023-01-29T04:48:44.164Z,0
2023-01-29T04:49:44.333Z,0
2023-01-29T04:50:44.507Z,0
2023-01-29T04:51:44.693Z,0
2023-01-29T04:52:44.888Z,0
2023-01-29T04:53:45.060Z,0
2023-01-29T04:54:45.231Z,0
2023-01-29T04:55:45.401Z,0
2023-01-29T04:56:45.594Z,0
2023-01-29T04:57:45.767Z,0
2023-01-29T04:58:46.052Z,0
2023-01-29T04:59:46.216Z,0
2023-01-29T05:00:46.379Z,0
2023-01-29T05:01:46.574Z,0
2023-01-29T05:02:46.901Z,0
2023-01-29T05:03:47.227Z,0
2023-01-29T05:04:47.397Z,0
2023-01-29T05:05:47.632Z,0
2023-01-29T05:06:47.803Z,0
2023-01-29T05:07:47.974Z,0
2023-01-29T05:08:48.149Z,0
2023-01-29T05:09:48.312Z,0
2023-01-29T05:10:48.499Z,0
2023-01-29T05:11:48.703Z,0
2023-01-29T05:12:48.902Z,0
2023-01-29T05:13:49.083Z,0
2023-01-29T05:14:49.274Z,0
2023-01-29T05:15:49.496Z,0
2023-01-29T05:16:49.768Z,0
2023-01-29T05:17:49.952Z,0
2023-01-29T05:18:50.132Z,0
2023-01-29T05:19:50.306Z,0
2023-01-29T05:20:50.503Z,0
2023-01-29T05:21:50.702Z,0
2023-01-29T05:22:50.905Z,0
2023-01-29T05:23:51.086Z,0
2023-01-29T05:24:51.254Z,0
2023-01-29T05:25:51.467Z,0
2023-01-29T05:26:51.679Z,0
2023-01-29T05:27:51.851Z,0
2023-01-29T05:28:52.035Z,0
2023-01-29T05:29:52.200Z,0
2023-01-29T05:30:52.428Z,0
2023-01-29T05:31:52.745Z,0
2023-01-29T05:32:53.033Z,0
2023-01-29T05:33:53.196Z,0
2023-01-29T05:34:53.374Z,0
2023-01-29T05:35:53.549Z,0
2023-01-29T05:36:53.710Z,0
2023-01-29T05:37:53.876Z,0
2023-01-29T05:38:54.077Z,0
2023-01-29T05:39:54.265Z,0
2023-01-29T05:40:54.493Z,0
2023-01-29T05:41:54.668Z,0
2023-01-29T05:42:54.839Z,0
2023-01-29T05:43:55.020Z,0
2023-01-29T05:44:55.221Z,0
2023-01-29T05:45:55.455Z,0
2023-01-29T05:46:55.648Z,0
2023-01-29T05:47:55.956Z,0
2023-01-29T05:48:56.134Z,0
2023-01-29T05:49:56.314Z,0
2023-01-29T05:50:56.480Z,0
2023-01-29T05:51:56.649Z,0
2023-01-29T05:52:56.829Z,0
2023-01-29T05:53:56.993Z,0
2023-01-29T05:54:57.164Z,0
2023-01-29T05:55:57.368Z,0
2023-01-29T05:56:57.535Z,0
2023-01-29T05:57:57.741Z,0
2023-01-29T05:58:57.917Z,0
2023-01-29T05:59:58.273Z,0
2023-01-29T06:00:58.444Z,0
2023-01-29T06:01:58.658Z,0
2023-01-29T06:02:59.142Z,0
2023-01-29T06:03:59.550Z,0
2023-01-29T06:04:59.740Z,0
2023-01-29T06:05:59.914Z,0
2023-01-29T06:07:00.434Z,0
2023-01-29T06:08:00.615Z,0
2023-01-29T06:09:00.821Z,0
2023-01-29T06:10:00.994Z,0
2023-01-29T06:11:01.189Z,0
2023-01-29T06:12:01.352Z,0
2023-01-29T06:13:01.558Z,0
2023-01-29T06:14:01.750Z,0
2023-01-29T06:15:01.966Z,0
2023-01-29T06:16:02.163Z,0
2023-01-29T06:17:02.448Z,0
2023-01-29T06:18:02.619Z,0
2023-01-29T06:19:02.788Z,0
2023-01-29T06:20:02.959Z,0
2023-01-29T06:21:03.131Z,0
2023-01-29T06:22:03.331Z,0
2023-01-29T06:23:03.496Z,0
2023-01-29T06:24:03.716Z,0
2023-01-29T06:25:04.080Z,0
2023-01-29T06:26:04.248Z,0
2023-01-29T06:27:04.631Z,0
2023-01-29T06:28:04.810Z,0
2023-01-29T06:29:04.963Z,0
2023-01-29T06:30:05.124Z,0
2023-01-29T06:31:21.221Z,0
2023-01-29T06:32:40.359Z,0
2023-01-29T06:33:40.679Z,0
2023-01-29T06:34:40.861Z,0
2023-01-29T06:35:41.030Z,1
2023-01-29T06:36:41.208Z,2
2023-01-29T06:37:41.409Z,3
2023-01-29T06:38:41.578Z,4
2023-01-29T06:39:41.791Z,6
2023-01-29T06:40:41.956Z,7
2023-01-29T06:41:42.123Z,9
2023-01-29T06:42:42.814Z,10
2023-01-29T06:43:46.379Z,11
2023-01-29T06:44:46.560Z,13
2023-01-29T06:45:46.799Z,15
2023-01-29T06:46:47.043Z,15
2023-01-29T06:47:47.217Z,17
2023-01-29T06:48:47.390Z,19
2023-01-29T06:49:47.595Z,19
2023-01-29T06:50:47.792Z,21
2023-01-29T06:51:47.965Z,21
2023-01-29T06:52:48.295Z,24
2023-01-29T06:53:48.460Z,27
2023-01-29T06:54:48.637Z,30
2023-01-29T06:55:48.823Z,30
2023-01-29T06:56:48.985Z,33
2023-01-29T06:57:49.157Z,37
2023-01-29T06:58:49.345Z,37
2023-01-29T06:59:49.710Z,41
2023-01-29T07:00:49.917Z,41
2023-01-29T07:01:50.316Z,41
2023-01-29T07:02:50.754Z,46
2023-01-29T07:03:50.943Z,51
2023-01-29T07:04:51.111Z,51
2023-01-29T07:05:51.300Z,57
2023-01-29T07:06:51.471Z,57
2023-01-29T07:07:51.652Z,63
2023-01-29T07:08:51.828Z,70
2023-01-29T07:09:51.993Z,70
2023-01-29T07:10:52.175Z,78
2023-01-29T07:11:52.365Z,86
2023-01-29T07:12:52.542Z,96
2023-01-29T07:13:52.713Z,110
2023-01-29T07:14:52.930Z,110
2023-01-29T07:15:53.119Z,130
2023-01-29T07:16:53.283Z,130
2023-01-29T07:17:53.495Z,150
2023-01-29T07:18:53.680Z,150
2023-01-29T07:19:53.843Z,169.92
2023-01-29T07:20:54.018Z,189.92
2023-01-29T07:21:54.185Z,189.92
2023-01-29T07:22:54.351Z,189.92
2023-01-29T07:23:54.636Z,189.92
2023-01-29T07:24:55.003Z,189.92
2023-01-29T07:25:55.209Z,189.92
2023-01-29T07:26:55.378Z,209.92
2023-01-29T07:27:55.574Z,209.92
2023-01-29T07:28:55.756Z,209.92
2023-01-29T07:29:55.951Z,209.92
2023-01-29T07:30:56.140Z,209.92
2023-01-29T07:31:56.503Z,209.92
2023-01-29T07:32:57.184Z,240
2023-01-29T07:33:57.367Z,240
2023-01-29T07:34:57.574Z,240
2023-01-29T07:35:57.761Z,240
2023-01-29T07:36:57.943Z,269.92
2023-01-29T07:37:58.116Z,269.92
2023-01-29T07:38:58.277Z,269.92
2023-01-29T07:39:58.452Z,300
2023-01-29T07:40:58.640Z,300
2023-01-29T07:41:58.829Z,369.92
2023-01-29T07:42:59.004Z,409.92
2023-01-29T07:43:59.187Z,409.92
2023-01-29T07:44:59.375Z,459.84
2023-01-29T07:45:59.551Z,459.84
2023-01-29T07:46:59.897Z,459.84
2023-01-29T07:48:00.091Z,509.76
2023-01-29T07:49:00.266Z,509.76
2023-01-29T07:50:00.447Z,509.76
2023-01-29T07:51:00.621Z,509.76
2023-01-29T07:52:00.813Z,569.92
2023-01-29T07:53:00.980Z,569.92
2023-01-29T07:54:01.150Z,569.92
2023-01-29T07:55:01.339Z,569.92
2023-01-29T07:56:01.506Z,629.76
2023-01-29T07:57:01.713Z,629.76
2023-01-29T07:58:01.904Z,629.76
2023-01-29T07:59:02.105Z,699.52
2023-01-29T08:00:02.269Z,699.52
2023-01-29T08:01:02.479Z,699.52
2023-01-29T08:02:02.780Z,769.92
2023-01-29T08:03:03.101Z,849.92
2023-01-29T08:04:03.306Z,849.92
2023-01-29T08:05:03.517Z,849.92
2023-01-29T08:06:03.681Z,849.92
2023-01-29T08:07:03.932Z,849.92
2023-01-29T08:08:07.144Z,849.92
2023-01-29T08:09:08.242Z,939.52
2023-01-29T08:10:08.410Z,939.52
2023-01-29T08:11:08.591Z,939.52
2023-01-29T08:12:08.761Z,1040
2023-01-29T08:13:08.950Z,1040
2023-01-29T08:14:09.187Z,1040
2023-01-29T08:15:09.436Z,1159.68
2023-01-29T08:16:09.678Z,1159.68
2023-01-29T08:17:10.009Z,1159.68
2023-01-29T08:18:10.178Z,1159.68
2023-01-29T08:19:10.359Z,1280
2023-01-29T08:20:10.544Z,1280
2023-01-29T08:21:12.961Z,1280
2023-01-29T08:22:14.221Z,1280
2023-01-29T08:23:14.426Z,1280
2023-01-29T08:24:14.894Z,1280
2023-01-29T08:25:15.074Z,1280
2023-01-29T08:26:15.273Z,1280
2023-01-29T08:27:15.450Z,1280
2023-01-29T08:28:15.658Z,1280
2023-01-29T08:29:15.851Z,1319.68
2023-01-29T08:30:16.947Z,1319.68
2023-01-29T08:31:18.820Z,1319.68
2023-01-29T08:32:19.005Z,1319.68
2023-01-29T08:33:21.561Z,1319.68
2023-01-29T08:34:39.569Z,1419.52
2023-01-29T08:35:39.761Z,1459.2
2023-01-29T08:36:39.925Z,1459.2
2023-01-29T08:37:40.097Z,1459.2
2023-01-29T08:38:40.265Z,1459.2
2023-01-29T08:39:46.552Z,1459.2
2023-01-29T08:40:46.766Z,1440
2023-01-29T08:41:46.932Z,1440
2023-01-29T08:42:47.095Z,1440
2023-01-29T08:43:47.260Z,1440
2023-01-29T08:44:47.440Z,1579.52
2023-01-29T08:45:47.614Z,1579.52
2023-01-29T08:46:47.843Z,1579.52
2023-01-29T08:47:48.098Z,1739.52
2023-01-29T08:48:48.283Z,1739.52
2023-01-29T08:49:48.913Z,1739.52
2023-01-29T08:50:49.100Z,1739.52
2023-01-29T08:51:49.268Z,1920
2023-01-29T08:52:49.441Z,1920
2023-01-29T08:53:50.661Z,1920
2023-01-29T08:54:51.803Z,1920
2023-01-29T08:55:51.969Z,1920
2023-01-29T08:56:52.149Z,1920
2023-01-29T08:57:52.324Z,1920
2023-01-29T08:58:52.497Z,1920
2023-01-29T08:59:52.704Z,1920
2023-01-29T09:00:52.947Z,1939.2
2023-01-29T09:01:53.196Z,1939.2
2023-01-29T09:02:53.368Z,1939.2
2023-01-29T09:03:53.535Z,1939.2
2023-01-29T09:04:53.705Z,1939.2
2023-01-29T09:05:53.868Z,1939.2
2023-01-29T09:06:54.041Z,1939.2
2023-01-29T09:07:54.366Z,1939.2
2023-01-29T09:08:54.533Z,1739.52
2023-01-29T09:09:54.716Z,1739.52
2023-01-29T09:10:54.880Z,1739.52
2023-01-29T09:11:55.051Z,1739.52
2023-01-29T09:12:55.223Z,1739.52
2023-01-29T09:13:55.401Z,1739.52
2023-01-29T09:14:55.573Z,1920
2023-01-29T09:15:56.858Z,1920
2023-01-29T09:16:58.180Z,1920
2023-01-29T09:17:58.552Z,1920
2023-01-29T09:18:58.722Z,1920
2023-01-29T09:19:58.941Z,2119.68
2023-01-29T09:20:59.150Z,2119.68
2023-01-29T09:21:59.351Z,2119.68
2023-01-29T09:22:59.517Z,2119.68
2023-01-29T09:23:59.712Z,2119.68
2023-01-29T09:24:59.914Z,2339.84
2023-01-29T09:26:00.141Z,2339.84
2023-01-29T09:27:00.334Z,2339.84
2023-01-29T09:28:00.510Z,2339.84
2023-01-29T09:29:00.722Z,2339.84
2023-01-29T09:30:00.959Z,2339.84
2023-01-29T09:31:01.206Z,2099.2
2023-01-29T09:32:01.744Z,2099.2
2023-01-29T09:33:01.920Z,2099.2
2023-01-29T09:34:02.101Z,2099.2
2023-01-29T09:35:02.274Z,2099.2
2023-01-29T09:36:02.477Z,2099.2
2023-01-29T09:37:02.648Z,2099.2
2023-01-29T09:38:02.819Z,2319.36
2023-01-29T09:39:03.009Z,2319.36
2023-01-29T09:40:03.197Z,2319.36
2023-01-29T09:41:03.364Z,2319.36
2023-01-29T09:42:03.557Z,2319.36
2023-01-29T09:43:03.731Z,2319.36
2023-01-29T09:44:03.941Z,2319.36
2023-01-29T09:45:04.145Z,2319.36
2023-01-29T09:46:04.348Z,2319.36
2023-01-29T09:47:04.668Z,2560
2023-01-29T09:48:04.835Z,2560
2023-01-29T09:49:05.002Z,2560
2023-01-29T09:50:05.173Z,2818.56
2023-01-29T09:51:05.342Z,2818.56
2023-01-29T09:52:05.524Z,2818.56
2023-01-29T09:53:05.699Z,3118.08
2023-01-29T09:54:05.851Z,3118.08
2023-01-29T09:55:06.028Z,3118.08
2023-01-29T09:56:06.210Z,3118.08
2023-01-29T09:57:06.381Z,3118.08
2023-01-29T09:58:06.591Z,3118.08
2023-01-29T09:59:06.759Z,3438.08
2023-01-29T10:00:06.918Z,3438.08
2023-01-29T10:01:07.195Z,3438.08
2023-01-29T10:02:07.684Z,3438.08
2023-01-29T10:03:08.273Z,3438.08
2023-01-29T10:04:08.630Z,3438.08
2023-01-29T10:05:08.934Z,3438.08
2023-01-29T10:06:09.150Z,3438.08
2023-01-29T10:07:09.319Z,3438.08
2023-01-29T10:08:09.535Z,3438.08
2023-01-29T10:09:09.879Z,3379.2
2023-01-29T10:10:10.117Z,3379.2
2023-01-29T10:11:10.299Z,3379.2
2023-01-29T10:12:10.466Z,3379.2
2023-01-29T10:13:10.657Z,3719.68
2023-01-29T10:14:10.824Z,3719.68
2023-01-29T10:15:10.998Z,3719.68
2023-01-29T10:16:11.216Z,3719.68
2023-01-29T10:17:11.515Z,3719.68
2023-01-29T10:18:11.839Z,3719.68
2023-01-29T10:19:12.028Z,3719.68
2023-01-29T10:20:12.234Z,3719.68
2023-01-29T10:21:12.407Z,3719.68
2023-01-29T10:22:12.572Z,4098.56
2023-01-29T10:23:12.741Z,4098.56
2023-01-29T10:24:12.913Z,4098.56
2023-01-29T10:25:13.104Z,4098.56
2023-01-29T10:26:13.586Z,4098.56
2023-01-29T10:27:13.833Z,4098.56
2023-01-29T10:28:13.999Z,4098.56
2023-01-29T10:29:14.170Z,4098.56
2023-01-29T10:30:14.345Z,4098.56
2023-01-29T10:31:14.660Z,4098.56
2023-01-29T10:32:15.319Z,3678.72
2023-01-29T10:33:15.702Z,3678.72
2023-01-29T10:34:15.926Z,3678.72
2023-01-29T10:35:16.384Z,3678.72
2023-01-29T10:36:17.651Z,3299.84
2023-01-29T10:37:17.817Z,3299.84
2023-01-29T10:38:17.978Z,3299.84
2023-01-29T10:39:18.198Z,3299.84
2023-01-29T10:40:18.393Z,3299.84
2023-01-29T10:41:18.584Z,3299.84
2023-01-29T10:42:18.764Z,3299.84
2023-01-29T10:43:18.967Z,3299.84
2023-01-29T10:44:19.138Z,3299.84
2023-01-29T10:45:19.654Z,3299.84
2023-01-29T10:46:20.965Z,3038.72
2023-01-29T10:47:21.215Z,3038.72
2023-01-29T10:48:21.661Z,3038.72
2023-01-29T10:49:21.839Z,3038.72
2023-01-29T10:50:22.018Z,3038.72
2023-01-29T10:51:22.196Z,3038.72
2023-01-29T10:52:22.377Z,3038.72
2023-01-29T10:53:22.553Z,3038.72
2023-01-29T10:54:22.726Z,3038.72
2023-01-29T10:55:22.909Z,3038.72
2023-01-29T10:56:23.690Z,3238.4
2023-01-29T10:57:23.911Z,3238.4
2023-01-29T10:58:24.091Z,3238.4
2023-01-29T10:59:24.621Z,3238.4
2023-01-29T11:00:24.792Z,3238.4
2023-01-29T11:01:25.015Z,3238.4
2023-01-29T11:02:25.356Z,3238.4
2023-01-29T11:03:28.174Z,3238.4
2023-01-29T11:04:29.904Z,3299.84
2023-01-29T11:05:30.085Z,3299.84
2023-01-29T11:06:30.281Z,3358.72
2023-01-29T11:07:30.452Z,3358.72
2023-01-29T11:08:30.614Z,3358.72
2023-01-29T11:09:33.901Z,3358.72
2023-01-29T11:10:34.128Z,3358.72
2023-01-29T11:11:34.306Z,3358.72
2023-01-29T11:12:34.605Z,3358.72
2023-01-29T11:13:34.772Z,3358.72
2023-01-29T11:14:35.059Z,3358.72
2023-01-29T11:15:35.236Z,3358.72
2023-01-29T11:16:35.684Z,3118.08
2023-01-29T11:17:35.862Z,3118.08
2023-01-29T11:18:36.125Z,3118.08
2023-01-29T11:19:36.299Z,3118.08
2023-01-29T11:20:36.531Z,3118.08
2023-01-29T11:21:36.710Z,3118.08
2023-01-29T11:22:36.899Z,3118.08
2023-01-29T11:23:37.119Z,3118.08
2023-01-29T11:24:37.338Z,3118.08
2023-01-29T11:25:37.507Z,3118.08
2023-01-29T11:26:37.748Z,2859.52
2023-01-29T11:27:38.015Z,2859.52
2023-01-29T11:28:38.192Z,2859.52
2023-01-29T11:29:38.376Z,2859.52
2023-01-29T11:30:38.699Z,2859.52
2023-01-29T11:31:39.097Z,2859.52
2023-01-29T11:32:39.898Z,2859.52
2023-01-29T11:33:40.083Z,2859.52
2023-01-29T11:34:40.250Z,2859.52
2023-01-29T11:35:40.416Z,2859.52
2023-01-29T11:36:40.623Z,2897.92
2023-01-29T11:37:40.809Z,2897.92
2023-01-29T11:38:40.978Z,2897.92
2023-01-29T11:39:41.151Z,2897.92
2023-01-29T11:40:41.332Z,3200
2023-01-29T11:41:41.546Z,3200
2023-01-29T11:42:41.706Z,3200
2023-01-29T11:43:41.875Z,3200
2023-01-29T11:44:42.076Z,3200
2023-01-29T11:45:42.262Z,3200
2023-01-29T11:46:42.482Z,3200
2023-01-29T11:47:42.800Z,3200
2023-01-29T11:48:42.970Z,3200
2023-01-29T11:49:43.161Z,3200
2023-01-29T11:50:43.349Z,3417.6
2023-01-29T11:51:43.541Z,3417.6
2023-01-29T11:52:43.720Z,3417.6
2023-01-29T11:53:43.933Z,3417.6
2023-01-29T11:54:44.107Z,3417.6
2023-01-29T11:55:50.484Z,3417.6
2023-01-29T11:56:51.339Z,3159.04
2023-01-29T11:57:51.938Z,3159.04
2023-01-29T11:58:52.105Z,3159.04
2023-01-29T11:59:52.282Z,3159.04
2023-01-29T12:00:52.459Z,3118.08
2023-01-29T12:01:52.623Z,3118.08
2023-01-29T12:02:52.799Z,3118.08
2023-01-29T12:03:53.066Z,3118.08
2023-01-29T12:04:53.501Z,3118.08
2023-01-29T12:05:53.747Z,3118.08
2023-01-29T12:06:54.070Z,3118.08
2023-01-29T12:07:54.251Z,3118.08
2023-01-29T12:08:54.439Z,3118.08
2023-01-29T12:09:54.611Z,3118.08
2023-01-29T12:10:54.780Z,3238.4
2023-01-29T12:11:54.954Z,3238.4
2023-01-29T12:12:55.144Z,3238.4
2023-01-29T12:13:55.318Z,3238.4
2023-01-29T12:14:55.483Z,3238.4
2023-01-29T12:15:55.652Z,3238.4
2023-01-29T12:16:55.870Z,3238.4
2023-01-29T12:17:56.035Z,3238.4
2023-01-29T12:18:56.195Z,3578.88
2023-01-29T12:19:56.362Z,3578.88
2023-01-29T12:20:56.539Z,3578.88
2023-01-29T12:21:56.711Z,3578.88
2023-01-29T12:22:57.178Z,3578.88
2023-01-29T12:23:57.351Z,3578.88
2023-01-29T12:24:57.562Z,3578.88
2023-01-29T12:25:57.775Z,3578.88
2023-01-29T12:26:57.957Z,3578.88
2023-01-29T12:27:58.135Z,3578.88
2023-01-29T12:28:58.315Z,3399.68
2023-01-29T12:29:58.486Z,3399.68
2023-01-29T12:30:58.669Z,3038.72
2023-01-29T12:31:58.914Z,3038.72
2023-01-29T12:32:59.106Z,3038.72
2023-01-29T12:33:59.308Z,3038.72
2023-01-29T12:34:59.473Z,3038.72
2023-01-29T12:35:59.664Z,3038.72
2023-01-29T12:36:59.853Z,3038.72
2023-01-29T12:38:00.030Z,3038.72
2023-01-29T12:39:00.221Z,3358.72
2023-01-29T12:40:00.393Z,3358.72
2023-01-29T12:41:00.592Z,3719.68
2023-01-29T12:42:00.780Z,3719.68
2023-01-29T12:43:00.954Z,4119.04
2023-01-29T12:44:01.132Z,4119.04
2023-01-29T12:45:01.318Z,4579.84
2023-01-29T12:46:01.509Z,4579.84
2023-01-29T12:47:01.799Z,5038.08
2023-01-29T12:48:02.140Z,5038.08
2023-01-29T12:49:02.488Z,5038.08
2023-01-29T12:50:02.664Z,5038.08
2023-01-29T12:51:02.837Z,5038.08
2023-01-29T12:52:03.031Z,5038.08
2023-01-29T12:53:03.227Z,5038.08
2023-01-29T12:54:03.400Z,5555.2
2023-01-29T12:55:03.603Z,5555.2
2023-01-29T12:56:03.816Z,5555.2
2023-01-29T12:57:03.998Z,5555.2
2023-01-29T12:58:04.215Z,5555.2
2023-01-29T12:59:04.397Z,5555.2
2023-01-29T13:00:04.570Z,5555.2
2023-01-29T13:01:04.917Z,5555.2
2023-01-29T13:02:05.290Z,5555.2
2023-01-29T13:03:05.499Z,5555.2
2023-01-29T13:04:05.808Z,5918.72
2023-01-29T13:05:05.985Z,5918.72
2023-01-29T13:06:06.170Z,5918.72
2023-01-29T13:07:06.350Z,5918.72
2023-01-29T13:08:06.516Z,5918.72
2023-01-29T13:09:06.677Z,5319.68
2023-01-29T13:10:06.861Z,5319.68
2023-01-29T13:11:07.029Z,5319.68
2023-01-29T13:12:07.215Z,5319.68
2023-01-29T13:13:07.379Z,5319.68
2023-01-29T13:14:07.554Z,5319.68
2023-01-29T13:15:07.721Z,4779.52
2023-01-29T13:16:07.924Z,4779.52
2023-01-29T13:17:08.231Z,4298.24
2023-01-29T13:18:08.413Z,4298.24
2023-01-29T13:19:08.597Z,4298.24
2023-01-29T13:20:08.798Z,3840
2023-01-29T13:21:08.987Z,3840
2023-01-29T13:22:09.149Z,3840
2023-01-29T13:23:09.315Z,3840
2023-01-29T13:24:09.481Z,3438.08
2023-01-29T13:25:09.668Z,3438.08
2023-01-29T13:26:10.073Z,3438.08
2023-01-29T13:27:14.265Z,3438.08
2023-01-29T13:28:14.426Z,3438.08
2023-01-29T13:29:14.640Z,3438.08
2023-01-29T13:30:15.060Z,3079.68
2023-01-29T13:31:15.829Z,3079.68
2023-01-29T13:32:16.009Z,3079.68
2023-01-29T13:33:16.774Z,3079.68
2023-01-29T13:34:16.974Z,3079.68
2023-01-29T13:35:17.504Z,3079.68
2023-01-29T13:36:18.696Z,3079.68
2023-01-29T13:37:19.000Z,3079.68